Union Mills, Washington
Current Conditions -  °F | °C
As of 10:54 AM on Thursday 27 Nov 2014 (Local Time) from KOLM Reporting Station
Moderate Rain Moderate Rain  
Wind Chill: 53°   Ceiling: 1100
Heat Index: 53°   Visibility: 1.5mi
Dew Point: 51°   Wind: 14mph
Humidity: 93%   Direction: 200°SSW
Pressure: 29.87"   Gusts: 21mph
Location:  46.9755°N, 122.872°W
Report Text: KOLM 271854Z 20012G18KT 1 1/2SM RA BR BKN011 OVC018 12/11 A2987 RMK AO2 SLP113 P0010 T01170106
Loading
Personal Weather Stations






























Interactive Weather Map New forecast layout! Learn more

10-Day Weather Forecast

Advertisements
Track Severe Weather on mobile